Time;durP1;ratioP1;P1;durP2;ratioP2;P2;SDS_P1;SDS_P2;PMS_P1;PMS_P2;Temp;Humidity;BMP_temperature;BMP_pressure;BME280_temperature;BME280_humidity;BME280_pressure;Samples;Min_cycle;Max_cycle;Signal;HPM_P1;HPM_P2
2023/07/15 00:01:44;;;;;;;3.73;2.50;;;25.10;60.50;;;;;;5090696;28;20234;-74
2023/07/15 00:04:13;;;;;;;2.73;2.53;;;25.00;60.80;;;;;;5071995;28;20229;-74
2023/07/15 00:06:42;;;;;;;3.23;2.70;;;25.00;61.30;;;;;;5074831;28;20238;-74
2023/07/15 00:09:09;;;;;;;4.20;2.60;;;24.90;61.60;;;;;;5083790;28;20205;-74
2023/07/15 00:11:39;;;;;;;4.17;2.90;;;24.90;61.80;;;;;;5071395;28;20189;-74
2023/07/15 00:14:15;;;;;;;3.63;2.50;;;24.80;61.80;;;;;;5071573;28;20299;-74
2023/07/15 00:16:42;;;;;;;3.33;2.50;;;24.80;61.80;;;;;;5075309;28;20226;-74
2023/07/15 00:19:09;;;;;;;2.63;2.43;;;24.80;61.30;;;;;;5091880;28;20273;-73
2023/07/15 00:21:37;;;;;;;4.03;2.37;;;24.70;61.40;;;;;;5091880;28;20216;-74
2023/07/15 00:24:06;;;;;;;3.60;2.60;;;24.70;61.70;;;;;;5091390;28;20212;-74
2023/07/15 00:26:34;;;;;;;2.80;2.23;;;24.70;61.20;;;;;;5089144;28;20656;-74
2023/07/15 00:29:03;;;;;;;4.20;2.47;;;24.60;60.10;;;;;;5071734;28;20232;-73
2023/07/15 00:31:32;;;;;;;2.70;2.50;;;24.50;59.90;;;;;;5071635;28;20204;-74
2023/07/15 00:33:59;;;;;;;2.67;2.23;;;24.50;60.70;;;;;;5071285;28;20652;-74
2023/07/15 00:36:28;;;;;;;3.77;2.70;;;24.50;59.90;;;;;;5072362;28;20229;-73
2023/07/15 00:38:54;;;;;;;3.00;2.70;;;24.40;59.60;;;;;;5091746;28;20231;-73
2023/07/15 00:41:24;;;;;;;2.60;2.40;;;24.40;59.70;;;;;;5090110;28;20594;-74
2023/07/15 00:43:55;;;;;;;2.73;2.53;;;24.40;59.60;;;;;;5088095;28;20192;-73
2023/07/15 00:47:00;;;;;;;2.63;2.07;;;24.30;59.70;;;;;;5091444;28;20261;-74
2023/07/15 00:49:31;;;;;;;2.90;2.50;;;24.30;60.00;;;;;;5071102;28;20204;-74
2023/07/15 00:52:03;;;;;;;3.43;2.30;;;24.30;59.90;;;;;;5091564;28;20211;-73
2023/07/15 00:54:33;;;;;;;4.73;2.43;;;24.10;60.00;;;;;;5091074;28;20579;-73
2023/07/15 00:57:01;;;;;;;2.50;2.30;;;24.20;60.30;;;;;;5071965;28;20680;-74
2023/07/15 00:59:29;;;;;;;3.17;2.30;;;24.20;60.30;;;;;;5089303;28;20204;-74
2023/07/15 01:01:56;;;;;;;4.73;2.90;;;24.20;60.40;;;;;;5085784;28;20251;-74
2023/07/15 01:04:23;;;;;;;4.07;2.63;;;24.10;60.40;;;;;;5070781;28;20302;-74
2023/07/15 01:06:52;;;;;;;3.70;2.40;;;24.10;60.50;;;;;;5072264;28;20247;-74
2023/07/15 01:09:19;;;;;;;2.30;2.03;;;24.10;60.70;;;;;;5083427;28;20280;-74
2023/07/15 01:11:46;;;;;;;2.60;2.40;;;24.10;60.50;;;;;;5091112;28;20786;-74
2023/07/15 01:14:13;;;;;;;4.13;2.47;;;24.10;60.60;;;;;;5088616;28;20239;-74
2023/07/15 01:16:40;;;;;;;2.60;2.40;;;24.10;60.70;;;;;;5078597;28;20243;-74
2023/07/15 01:19:08;;;;;;;2.80;2.47;;;24.00;60.70;;;;;;5089920;28;20220;-74
2023/07/15 01:21:36;;;;;;;4.80;2.80;;;24.00;60.80;;;;;;5090366;28;20263;-73
2023/07/15 01:24:06;;;;;;;3.00;2.30;;;24.00;60.90;;;;;;5089591;28;20208;-73
2023/07/15 01:26:33;;;;;;;3.00;2.70;;;24.00;61.10;;;;;;5081763;28;20707;-73
2023/07/15 01:29:00;;;;;;;2.43;2.20;;;24.00;61.40;;;;;;5091212;28;20265;-73
2023/07/15 01:31:28;;;;;;;3.40;2.60;;;23.90;61.50;;;;;;5090616;28;20299;-74
2023/07/15 01:33:54;;;;;;;2.20;2.00;;;23.90;61.90;;;;;;5074082;28;20233;-73
2023/07/15 01:36:21;;;;;;;2.97;2.30;;;23.90;62.10;;;;;;5074283;28;20303;-73
2023/07/15 01:38:49;;;;;;;2.37;2.17;;;23.80;62.30;;;;;;5094519;28;20211;-73
2023/07/15 01:41:17;;;;;;;2.50;2.30;;;23.80;62.50;;;;;;5094288;28;20223;-73
2023/07/15 01:43:44;;;;;;;2.70;2.37;;;23.80;62.50;;;;;;5079044;28;20289;-73
2023/07/15 01:46:11;;;;;;;3.33;2.40;;;23.80;62.70;;;;;;5074178;28;20256;-74
2023/07/15 01:48:38;;;;;;;3.07;2.53;;;23.80;63.00;;;;;;5094463;28;20299;-74
2023/07/15 01:51:05;;;;;;;3.27;2.33;;;23.80;63.20;;;;;;5094343;28;20291;-73
2023/07/15 01:53:32;;;;;;;2.90;2.23;;;23.70;63.20;;;;;;5094210;28;20215;-74
2023/07/15 01:55:58;;;;;;;4.93;2.70;;;23.80;63.50;;;;;;5094192;28;20204;-74
2023/07/15 01:58:27;;;;;;;4.20;2.33;;;23.80;63.80;;;;;;5074607;28;20224;-73
2023/07/15 02:00:53;;;;;;;3.37;2.40;;;23.80;64.10;;;;;;5073761;28;20216;-73
2023/07/15 02:03:20;;;;;;;2.47;2.27;;;23.70;64.10;;;;;;5093068;28;20223;-73
2023/07/15 02:05:48;;;;;;;3.90;2.77;;;23.70;64.30;;;;;;5093962;28;20254;-74
2023/07/15 02:08:14;;;;;;;3.20;2.67;;;23.70;64.30;;;;;;5076466;28;20212;-74
2023/07/15 02:10:41;;;;;;;2.93;2.53;;;23.70;64.40;;;;;;5073727;28;20217;-74
2023/07/15 02:13:09;;;;;;;2.73;2.50;;;23.60;65.00;;;;;;5074026;28;20185;-74
2023/07/15 02:15:37;;;;;;;2.97;2.53;;;23.60;64.40;;;;;;5073787;28;20291;-74
2023/07/15 02:18:04;;;;;;;3.57;2.50;;;23.60;64.40;;;;;;5090877;28;20224;-74
2023/07/15 02:20:31;;;;;;;2.70;2.50;;;23.60;64.40;;;;;;5093703;28;20319;-74
2023/07/15 02:22:57;;;;;;;2.80;2.60;;;23.60;64.40;;;;;;5093164;28;20227;-74
2023/07/15 02:25:24;;;;;;;2.83;2.47;;;23.50;64.30;;;;;;5074070;28;20635;-74
2023/07/15 02:27:51;;;;;;;3.93;2.50;;;23.50;64.50;;;;;;5073511;28;20197;-73
2023/07/15 02:30:19;;;;;;;2.47;2.27;;;23.50;65.50;;;;;;5073097;28;20262;-74
2023/07/15 02:32:49;;;;;;;3.43;2.20;;;23.50;64.80;;;;;;5089399;28;20189;-74
2023/07/15 02:35:15;;;;;;;2.63;2.30;;;23.50;65.20;;;;;;5093341;28;20259;-73
2023/07/15 02:37:44;;;;;;;3.27;2.37;;;23.50;65.40;;;;;;5078453;28;20249;-74
2023/07/15 02:40:11;;;;;;;6.97;2.57;;;23.40;66.00;;;;;;5073198;28;20213;-74
2023/07/15 02:42:39;;;;;;;3.27;2.60;;;23.40;65.30;;;;;;5078722;28;20227;-73
2023/07/15 02:45:08;;;;;;;4.73;2.60;;;23.40;65.70;;;;;;5093567;28;20670;-73
2023/07/15 02:47:36;;;;;;;3.07;2.40;;;23.40;65.70;;;;;;5086072;28;20211;-74
2023/07/15 02:50:07;;;;;;;3.17;2.50;;;23.40;65.70;;;;;;5073974;28;20235;-74
2023/07/15 02:52:36;;;;;;;2.60;2.40;;;23.40;65.70;;;;;;5072913;28;20299;-73
2023/07/15 02:55:03;;;;;;;3.23;2.57;;;23.40;65.70;;;;;;5073244;28;20287;-74
2023/07/15 02:57:31;;;;;;;4.63;2.63;;;23.40;65.40;;;;;;5072680;28;20229;-73
2023/07/15 02:59:57;;;;;;;3.70;2.50;;;23.40;65.20;;;;;;5085057;28;20223;-73
2023/07/15 03:02:25;;;;;;;3.53;2.70;;;23.40;65.20;;;;;;5091310;28;20212;-73
2023/07/15 03:04:53;;;;;;;2.90;2.60;;;23.40;65.10;;;;;;5092472;28;20678;-73
2023/07/15 03:07:21;;;;;;;3.00;2.60;;;23.40;65.00;;;;;;5092673;28;20220;-74
2023/07/15 03:09:48;;;;;;;2.40;2.10;;;23.40;64.80;;;;;;5081376;28;20215;-74
2023/07/15 03:12:15;;;;;;;2.60;2.40;;;23.40;64.70;;;;;;5072555;28;20188;-74
2023/07/15 03:14:42;;;;;;;3.47;2.60;;;23.40;64.80;;;;;;5072671;28;20201;-73
2023/07/15 03:17:10;;;;;;;2.93;2.73;;;23.40;65.00;;;;;;5084873;28;20231;-73
2023/07/15 03:19:37;;;;;;;4.53;2.93;;;23.40;65.10;;;;;;5082534;28;20217;-73
2023/07/15 03:22:05;;;;;;;3.40;2.60;;;23.30;65.10;;;;;;5072087;28;20627;-74
2023/07/15 03:24:35;;;;;;;3.00;2.73;;;23.40;65.30;;;;;;5072383;28;20208;-74
2023/07/15 03:27:01;;;;;;;3.70;2.90;;;23.30;65.60;;;;;;5072452;28;20208;-74
2023/07/15 03:29:28;;;;;;;3.07;2.50;;;23.30;65.60;;;;;;5072307;28;20227;-74
2023/07/15 03:31:55;;;;;;;3.20;2.60;;;23.40;65.70;;;;;;5082996;28;20192;-74
2023/07/15 03:34:22;;;;;;;3.07;2.57;;;23.40;65.70;;;;;;5092184;28;20237;-74
2023/07/15 03:36:49;;;;;;;5.67;2.33;;;23.40;65.70;;;;;;5092466;28;20590;-73
2023/07/15 03:39:16;;;;;;;5.07;2.50;;;23.30;65.60;;;;;;5086010;28;20217;-74
2023/07/15 03:41:44;;;;;;;2.93;2.60;;;23.40;65.70;;;;;;5072215;28;20548;-74
2023/07/15 03:44:11;;;;;;;2.33;2.13;;;23.40;66.30;;;;;;5091160;28;20234;-74
2023/07/15 03:46:41;;;;;;;3.03;2.40;;;23.30;65.80;;;;;;5091690;28;20232;-74
2023/07/15 03:49:08;;;;;;;2.97;2.50;;;23.30;66.10;;;;;;5086691;28;20260;-74
2023/07/15 03:51:35;;;;;;;2.80;2.60;;;23.30;66.00;;;;;;5071952;28;20217;-74
2023/07/15 03:54:03;;;;;;;2.77;2.53;;;23.30;66.00;;;;;;5071370;28;20598;-73
2023/07/15 03:56:30;;;;;;;2.77;2.53;;;23.30;65.90;;;;;;5076889;28;20736;-73
2023/07/15 03:58:59;;;;;;;4.47;3.13;;;23.30;66.00;;;;;;5074788;28;20284;-73
2023/07/15 04:01:26;;;;;;;3.13;2.73;;;23.30;66.10;;;;;;5079715;28;20220;-73
2023/07/15 04:03:53;;;;;;;3.53;2.67;;;23.30;66.00;;;;;;5091554;28;20638;-74
2023/07/15 04:06:20;;;;;;;2.97;2.27;;;23.30;65.60;;;;;;5081127;28;20266;-74
2023/07/15 04:08:49;;;;;;;2.70;2.50;;;23.30;65.90;;;;;;5071813;28;20228;-73
2023/07/15 04:11:17;;;;;;;3.90;2.30;;;23.30;66.00;;;;;;5071482;28;20205;-74
2023/07/15 04:13:44;;;;;;;2.40;2.20;;;23.30;65.70;;;;;;5071075;28;20303;-74
2023/07/15 04:16:12;;;;;;;2.97;2.70;;;23.30;65.50;;;;;;5080640;28;20216;-74
2023/07/15 04:18:39;;;;;;;3.57;2.93;;;23.30;65.50;;;;;;5091572;28;20204;-74
2023/07/15 04:21:07;;;;;;;2.43;2.23;;;23.30;65.60;;;;;;5091551;28;20232;-74
2023/07/15 04:23:33;;;;;;;3.33;2.30;;;23.30;65.60;;;;;;5091682;28;20812;-73
2023/07/15 04:26:00;;;;;;;3.60;2.30;;;23.30;65.60;;;;;;5089829;28;20287;-74
2023/07/15 04:28:27;;;;;;;2.80;2.60;;;23.30;65.60;;;;;;5091479;28;20733;-74
2023/07/15 04:30:54;;;;;;;3.80;2.80;;;23.40;65.70;;;;;;5091343;28;20291;-74
2023/07/15 04:33:23;;;;;;;4.17;2.93;;;23.40;65.60;;;;;;5079504;28;20217;-74
2023/07/15 04:35:51;;;;;;;3.10;2.43;;;23.40;65.70;;;;;;5075808;28;20199;-73
2023/07/15 04:38:18;;;;;;;6.10;3.20;;;23.50;65.90;;;;;;5091090;28;20300;-74
2023/07/15 04:40:45;;;;;;;4.70;3.00;;;23.50;66.10;;;;;;5085855;28;20667;-74
2023/07/15 04:43:12;;;;;;;3.83;2.90;;;23.50;65.70;;;;;;5080059;28;20243;-73
2023/07/15 04:45:39;;;;;;;2.63;2.43;;;23.50;65.70;;;;;;5073649;28;20207;-73
2023/07/15 04:48:06;;;;;;;3.20;2.60;;;23.60;65.90;;;;;;5090960;28;20234;-74
2023/07/15 04:50:34;;;;;;;2.80;2.53;;;23.50;66.60;;;;;;5091332;28;20728;-74
2023/07/15 04:53:01;;;;;;;3.50;2.30;;;23.60;65.90;;;;;;5091355;28;20296;-74
2023/07/15 04:55:28;;;;;;;3.80;2.30;;;23.70;66.20;;;;;;5088303;28;20586;-75
2023/07/15 04:57:55;;;;;;;4.97;2.97;;;23.70;66.70;;;;;;5071062;28;20296;-74
2023/07/15 05:00:22;;;;;;;4.53;2.60;;;23.70;67.20;;;;;;5071098;28;20256;-74
2023/07/15 05:02:49;;;;;;;3.27;2.57;;;23.80;67.30;;;;;;5085114;28;20240;-74
2023/07/15 05:05:18;;;;;;;2.30;2.10;;;23.80;67.30;;;;;;5089949;28;20212;-74
2023/07/15 05:07:46;;;;;;;3.47;2.73;;;23.80;68.00;;;;;;5075122;28;20580;-74
2023/07/15 05:10:13;;;;;;;3.57;2.53;;;23.80;67.60;;;;;;5076614;28;20299;-74
2023/07/15 05:12:40;;;;;;;3.47;2.43;;;23.80;67.20;;;;;;5095041;28;20283;-74
2023/07/15 05:15:09;;;;;;;3.40;2.93;;;23.90;67.30;;;;;;5094919;28;20507;-73
2023/07/15 05:17:37;;;;;;;2.93;2.63;;;23.90;66.40;;;;;;5094621;28;20543;-73
2023/07/15 05:20:05;;;;;;;3.30;2.77;;;24.00;66.40;;;;;;5094985;28;20259;-74
2023/07/15 05:22:32;;;;;;;2.63;2.43;;;24.00;66.20;;;;;;5094978;28;20242;-73
2023/07/15 05:25:00;;;;;;;4.50;2.53;;;24.10;65.80;;;;;;5094153;28;20344;-73
2023/07/15 05:27:27;;;;;;;3.67;2.47;;;24.10;65.50;;;;;;5094780;28;20208;-73
2023/07/15 05:29:54;;;;;;;3.70;2.30;;;24.20;65.30;;;;;;5094921;28;20204;-74
2023/07/15 05:32:21;;;;;;;2.73;2.40;;;24.30;65.30;;;;;;5094665;28;20215;-73
2023/07/15 05:34:47;;;;;;;3.67;2.70;;;24.40;65.10;;;;;;5094878;28;20291;-74
2023/07/15 05:37:14;;;;;;;4.13;2.60;;;24.50;64.80;;;;;;5090102;28;20200;-73
2023/07/15 05:39:41;;;;;;;3.87;2.43;;;24.60;64.60;;;;;;5094302;28;20240;-73
2023/07/15 05:42:09;;;;;;;5.93;2.80;;;24.70;63.80;;;;;;5077783;28;20304;-73
2023/07/15 05:44:36;;;;;;;2.47;2.27;;;24.70;63.20;;;;;;5094473;28;20696;-73
2023/07/15 05:47:03;;;;;;;3.00;2.40;;;24.70;63.10;;;;;;5088279;28;20626;-73
2023/07/15 05:49:30;;;;;;;2.50;2.20;;;24.80;63.10;;;;;;5075672;28;20213;-73
2023/07/15 05:51:57;;;;;;;4.03;2.50;;;24.80;62.80;;;;;;5074461;28;20228;-74
2023/07/15 05:54:24;;;;;;;3.07;2.50;;;24.90;62.70;;;;;;5073842;28;20296;-73
2023/07/15 05:56:51;;;;;;;3.43;2.23;;;25.00;62.20;;;;;;5074780;28;20196;-73
2023/07/15 05:59:19;;;;;;;2.30;2.10;;;25.00;62.00;;;;;;5074056;28;20282;-73
2023/07/15 06:01:46;;;;;;;2.50;2.30;;;25.20;62.20;;;;;;5074050;28;20205;-73
2023/07/15 06:04:14;;;;;;;5.33;2.57;;;25.30;61.80;;;;;;5074000;28;20323;-73
2023/07/15 06:06:41;;;;;;;2.93;2.10;;;25.40;61.60;;;;;;5089493;28;20287;-73
2023/07/15 06:09:08;;;;;;;2.20;1.97;;;25.50;61.20;;;;;;5093946;28;20200;-73
2023/07/15 06:11:35;;;;;;;2.93;2.30;;;25.60;60.50;;;;;;5078703;28;20314;-73
2023/07/15 06:14:04;;;;;;;2.77;2.40;;;25.70;60.40;;;;;;5073819;28;20205;-73
2023/07/15 06:16:32;;;;;;;2.30;2.07;;;25.80;60.30;;;;;;5074730;28;20233;-74
2023/07/15 06:18:59;;;;;;;3.53;2.83;;;25.90;60.60;;;;;;5086013;28;20200;-74
2023/07/15 06:21:26;;;;;;;3.07;2.10;;;26.00;60.90;;;;;;5079332;28;20291;-74
2023/07/15 06:23:53;;;;;;;3.30;2.10;;;26.10;60.10;;;;;;5081132;28;20563;-74
2023/07/15 06:26:20;;;;;;;3.93;2.30;;;26.20;60.40;;;;;;5073774;28;20287;-74
2023/07/15 06:28:47;;;;;;;3.20;2.30;;;26.30;59.60;;;;;;5074313;28;20194;-73
2023/07/15 06:31:14;;;;;;;2.57;2.33;;;26.40;59.90;;;;;;5073824;28;20613;-73
2023/07/15 06:33:44;;;;;;;2.43;2.00;;;26.60;60.10;;;;;;5084457;28;20610;-74
2023/07/15 06:36:11;;;;;;;2.60;2.40;;;26.60;60.00;;;;;;5084246;28;20237;-74
2023/07/15 06:38:38;;;;;;;3.20;2.90;;;26.80;59.60;;;;;;5073092;28;20202;-73
2023/07/15 06:41:07;;;;;;;4.13;2.57;;;26.80;58.40;;;;;;5073296;28;20222;-74
2023/07/15 06:43:34;;;;;;;2.67;2.30;;;27.00;58.60;;;;;;5086532;28;20323;-74
2023/07/15 06:46:01;;;;;;;3.63;2.53;;;27.10;58.60;;;;;;5090360;28;20284;-71
2023/07/15 06:48:27;;;;;;;3.00;2.17;;;27.20;57.90;;;;;;5093592;28;20491;-67
2023/07/15 06:50:56;;;;;;;4.70;2.53;;;27.30;58.00;;;;;;5093242;28;20198;-68
2023/07/15 06:53:22;;;;;;;3.43;2.03;;;27.40;56.70;;;;;;5080170;28;20297;-69
2023/07/15 06:55:51;;;;;;;2.87;2.20;;;27.50;55.90;;;;;;5091499;28;20318;-69
2023/07/15 06:58:18;;;;;;;2.30;2.10;;;27.70;55.40;;;;;;5093753;28;20234;-69
2023/07/15 07:00:44;;;;;;;2.50;2.30;;;27.80;55.60;;;;;;5086908;28;20225;-69
2023/07/15 07:03:11;;;;;;;3.37;2.30;;;27.90;54.90;;;;;;5078953;28;20289;-69
2023/07/15 07:05:38;;;;;;;3.87;2.27;;;28.00;55.10;;;;;;5073467;28;20295;-69
2023/07/15 07:08:09;;;;;;;3.60;2.50;;;28.10;55.10;;;;;;5093343;28;20649;-68
2023/07/15 07:10:35;;;;;;;4.27;2.50;;;28.10;55.10;;;;;;5092935;28;20194;-69
2023/07/15 07:13:03;;;;;;;3.07;2.07;;;28.10;55.10;;;;;;5093680;28;20580;-68
2023/07/15 07:15:29;;;;;;;2.30;2.10;;;28.20;55.10;;;;;;5093449;28;20220;-69
2023/07/15 07:17:56;;;;;;;3.57;2.70;;;28.20;55.40;;;;;;5088774;28;20224;-69
2023/07/15 07:20:23;;;;;;;2.60;2.30;;;28.20;55.10;;;;;;5084016;28;20234;-69
2023/07/15 07:22:50;;;;;;;2.70;2.43;;;28.30;55.20;;;;;;5092445;28;20562;-69
2023/07/15 07:25:18;;;;;;;2.80;2.33;;;28.30;55.20;;;;;;5080708;28;20233;-68
2023/07/15 07:27:45;;;;;;;2.10;1.90;;;28.30;55.30;;;;;;5078102;28;20667;-68
2023/07/15 07:30:12;;;;;;;3.50;2.20;;;28.40;55.80;;;;;;5086301;28;20231;-68
2023/07/15 07:32:40;;;;;;;2.90;2.40;;;28.50;54.80;;;;;;5092156;28;20200;-69
2023/07/15 07:35:07;;;;;;;2.47;2.10;;;28.50;54.50;;;;;;5086434;28;20279;-68
2023/07/15 07:37:34;;;;;;;2.57;2.00;;;28.60;55.00;;;;;;5081238;28;20244;-69
2023/07/15 07:40:01;;;;;;;3.57;2.10;;;28.60;54.80;;;;;;5091790;28;20211;-68
2023/07/15 07:42:29;;;;;;;2.60;2.40;;;28.70;54.60;;;;;;5087748;28;20616;-68
2023/07/15 07:44:56;;;;;;;3.03;2.10;;;28.80;54.80;;;;;;5075062;28;20221;-69
2023/07/15 07:47:23;;;;;;;3.47;2.30;;;28.80;55.70;;;;;;5092375;28;20220;-68
2023/07/15 07:49:50;;;;;;;3.67;2.60;;;28.90;55.60;;;;;;5087876;28;20947;-69
2023/07/15 07:52:16;;;;;;;2.80;2.40;;;28.90;55.40;;;;;;5092534;28;20211;-68
2023/07/15 07:54:43;;;;;;;2.70;2.17;;;28.90;56.00;;;;;;5086640;28;20204;-68
2023/07/15 07:57:14;;;;;;;2.80;2.30;;;29.00;56.20;;;;;;5084257;28;20204;-68
2023/07/15 07:59:42;;;;;;;3.37;2.60;;;29.10;55.20;;;;;;5072768;28;20665;-69
2023/07/15 08:02:09;;;;;;;2.70;2.50;;;29.20;55.60;;;;;;5074885;28;20730;-69
2023/07/15 08:04:35;;;;;;;3.30;2.57;;;29.40;53.80;;;;;;5088850;28;20234;-68
2023/07/15 08:07:02;;;;;;;3.13;2.60;;;29.50;53.80;;;;;;5092183;28;20210;-68
2023/07/15 08:09:29;;;;;;;2.60;2.40;;;29.50;54.00;;;;;;5092264;28;20563;-69
2023/07/15 08:11:56;;;;;;;2.47;2.27;;;29.60;53.00;;;;;;5088116;28;20224;-68
2023/07/15 08:14:23;;;;;;;2.40;2.20;;;29.70;53.70;;;;;;5074685;28;20629;-68
2023/07/15 08:16:51;;;;;;;4.97;2.50;;;29.70;54.20;;;;;;5084505;28;20216;-68
2023/07/15 08:19:18;;;;;;;3.37;2.43;;;29.80;53.80;;;;;;5084620;28;20217;-68
2023/07/15 08:21:45;;;;;;;4.03;2.73;;;29.90;53.60;;;;;;5086112;28;20228;-68
2023/07/15 08:24:12;;;;;;;3.40;2.60;;;29.90;54.30;;;;;;5083778;28;20216;-72
2023/07/15 08:26:38;;;;;;;2.50;2.30;;;30.00;54.10;;;;;;5087064;28;20216;-72
2023/07/15 08:29:05;;;;;;;3.43;2.30;;;30.10;53.40;;;;;;5086639;28;20193;-72
2023/07/15 08:31:33;;;;;;;3.83;2.53;;;30.20;52.70;;;;;;5080331;28;20218;-72
2023/07/15 08:34:02;;;;;;;3.40;2.83;;;30.40;52.50;;;;;;5088049;28;20224;-72
2023/07/15 08:36:29;;;;;;;3.10;2.80;;;30.60;53.00;;;;;;5073415;28;20201;-72
2023/07/15 08:38:56;;;;;;;2.80;2.60;;;30.70;52.40;;;;;;5076514;28;20678;-72
2023/07/15 08:41:24;;;;;;;3.43;2.40;;;30.80;51.70;;;;;;5093842;28;20216;-72
2023/07/15 08:43:51;;;;;;;3.13;2.70;;;30.80;50.50;;;;;;5095116;28;20626;-72
2023/07/15 08:46:26;;;;;;;2.80;2.60;;;30.90;50.90;;;;;;5080583;28;20223;-73
2023/07/15 08:48:53;;;;;;;5.27;2.60;;;31.00;52.60;;;;;;5080270;28;20193;-72
2023/07/15 08:51:25;;;;;;;3.90;2.77;;;31.10;51.50;;;;;;5093987;28;20215;-73
2023/07/15 08:53:54;;;;;;;3.57;2.40;;;31.30;51.40;;;;;;5083012;28;20189;-73
2023/07/15 08:56:23;;;;;;;2.30;2.10;;;31.30;51.70;;;;;;5096296;28;20268;-73
2023/07/15 08:58:51;;;;;;;2.77;2.57;;;31.30;51.30;;;;;;5095896;28;20204;-72
2023/07/15 09:01:18;;;;;;;3.23;2.80;;;31.50;51.80;;;;;;5095692;28;20212;-72
2023/07/15 09:03:45;;;;;;;4.53;2.93;;;31.50;51.10;;;;;;5095727;28;20318;-72
2023/07/15 09:06:12;;;;;;;5.23;2.90;;;31.60;51.50;;;;;;5093033;28;20197;-72
2023/07/15 09:08:42;;;;;;;4.97;2.90;;;31.70;52.10;;;;;;5075332;28;20213;-73
2023/07/15 09:11:12;;;;;;;3.87;2.47;;;31.80;52.60;;;;;;5075093;28;20720;-72
2023/07/15 09:13:40;;;;;;;3.30;2.43;;;31.80;52.40;;;;;;5075820;28;20205;-73
2023/07/15 09:16:06;;;;;;;3.27;2.80;;;31.80;52.60;;;;;;5088589;28;20548;-72
2023/07/15 09:18:39;;;;;;;3.87;2.80;;;31.80;52.10;;;;;;5075512;28;20190;-72
2023/07/15 09:21:10;;;;;;;3.10;2.60;;;31.80;52.70;;;;;;5075565;28;20186;-72
2023/07/15 09:23:43;;;;;;;6.57;2.70;;;31.70;52.20;;;;;;5082319;28;20200;-72
2023/07/15 09:26:10;;;;;;;3.10;2.80;;;31.70;50.90;;;;;;5095664;28;20216;-72
2023/07/15 09:28:38;;;;;;;3.37;2.60;;;31.60;51.10;;;;;;5095420;28;20228;-72
2023/07/15 09:31:05;;;;;;;3.40;2.50;;;31.60;50.90;;;;;;5095939;28;20208;-72
2023/07/15 09:33:34;;;;;;;3.20;2.50;;;31.60;50.00;;;;;;5095616;28;20245;-72
2023/07/15 09:36:01;;;;;;;2.87;2.40;;;31.60;49.70;;;;;;5094603;28;20205;-72
2023/07/15 09:38:32;;;;;;;3.33;2.50;;;31.60;49.80;;;;;;5092400;28;20287;-72
2023/07/15 09:41:01;;;;;;;3.67;2.77;;;31.60;50.20;;;;;;5075114;28;20209;-72
2023/07/15 09:43:55;;;;;;;3.00;2.73;;;31.60;50.40;;;;;;5088799;28;20222;-72
2023/07/15 09:46:22;;;;;;;3.60;2.53;;;31.70;50.20;;;;;;5058526;28;20220;-72
2023/07/15 09:48:51;;;;;;;4.37;2.60;;;31.70;49.70;;;;;;5094948;28;20295;-72
2023/07/15 09:51:19;;;;;;;2.83;2.63;;;31.70;49.80;;;;;;5082449;28;20293;-72
2023/07/15 09:53:50;;;;;;;2.90;2.60;;;31.70;50.00;;;;;;5093030;28;20210;-72
2023/07/15 09:56:24;;;;;;;3.00;2.70;;;31.80;49.90;;;;;;5094386;28;20678;-72
2023/07/15 09:58:53;;;;;;;3.70;2.97;;;31.80;50.60;;;;;;5095063;28;20243;-72
2023/07/15 10:01:27;;;;;;;3.03;2.83;;;31.80;50.40;;;;;;5075456;28;20673;-72
2023/07/15 10:04:03;;;;;;;3.17;2.87;;;31.80;50.20;;;;;;5074955;28;20194;-72
2023/07/15 10:06:30;;;;;;;4.83;3.37;;;32.10;49.50;;;;;;5076788;28;20189;-72
2023/07/15 10:08:59;;;;;;;3.60;2.73;;;32.10;48.60;;;;;;5094652;28;20214;-72
2023/07/15 10:11:29;;;;;;;4.20;2.83;;;32.30;48.40;;;;;;5094931;28;20229;-72
2023/07/15 10:13:56;;;;;;;3.07;2.87;;;32.40;48.20;;;;;;5080623;28;20777;-72
2023/07/15 10:16:23;;;;;;;5.00;3.37;;;32.60;48.10;;;;;;5076382;28;20226;-72
2023/07/15 10:18:50;;;;;;;4.07;2.83;;;32.90;49.00;;;;;;5094922;28;20550;-72
2023/07/15 10:21:17;;;;;;;3.47;3.10;;;33.00;48.00;;;;;;5084003;28;20286;-72
2023/07/15 10:23:44;;;;;;;3.53;2.97;;;33.20;47.40;;;;;;5086112;28;20226;-72
2023/07/15 10:26:12;;;;;;;7.30;3.13;;;33.10;44.50;;;;;;5094228;28;20257;-72
2023/07/15 10:28:42;;;;;;;4.10;3.27;;;33.00;45.50;;;;;;5093882;28;20199;-72
2023/07/15 10:31:11;;;;;;;4.13;2.90;;;33.00;45.10;;;;;;5094187;28;20286;-72
2023/07/15 10:33:53;;;;;;;5.10;2.93;;;33.00;45.60;;;;;;5090131;28;20643;-73
2023/07/15 10:36:41;;;;;;;4.30;2.70;;;33.00;44.60;;;;;;5092037;28;20333;-72
2023/07/15 10:39:15;;;;;;;5.13;3.00;;;33.00;46.00;;;;;;5086370;28;20284;-72
2023/07/15 10:41:44;;;;;;;3.90;2.80;;;33.10;45.60;;;;;;5094248;28;20266;-72
2023/07/15 10:44:28;;;;;;;3.83;2.70;;;33.10;45.70;;;;;;5074763;28;20555;-72
2023/07/15 10:47:04;;;;;;;3.43;3.00;;;33.10;45.40;;;;;;5088544;28;20226;-72
2023/07/15 10:49:31;;;;;;;5.07;3.13;;;33.10;45.20;;;;;;5083716;28;20201;-71
2023/07/15 10:51:58;;;;;;;3.17;2.80;;;33.10;46.00;;;;;;5094252;28;20232;-72
2023/07/15 10:54:27;;;;;;;3.47;3.17;;;33.00;45.90;;;;;;5077403;28;20207;-72
2023/07/15 10:56:54;;;;;;;4.20;3.00;;;33.00;45.60;;;;;;5074742;28;20663;-72
2023/07/15 10:59:25;;;;;;;4.73;2.80;;;32.90;45.70;;;;;;5073844;28;20234;-72
2023/07/15 11:01:52;;;;;;;3.13;2.80;;;32.90;45.60;;;;;;5073824;28;20192;-72
2023/07/15 11:04:20;;;;;;;5.07;2.80;;;32.90;45.70;;;;;;5072544;28;20227;-72
2023/07/15 11:06:47;;;;;;;3.93;3.00;;;32.90;45.80;;;;;;5088625;28;20635;-72
2023/07/15 11:09:15;;;;;;;3.70;2.83;;;32.90;45.70;;;;;;5089749;28;20200;-72
2023/07/15 11:11:42;;;;;;;3.80;2.70;;;32.80;45.80;;;;;;5086548;28;20238;-72
2023/07/15 11:14:31;;;;;;;2.83;2.60;;;32.90;45.90;;;;;;5078517;28;20214;-72
2023/07/15 11:17:01;;;;;;;3.50;3.20;;;32.80;45.50;;;;;;5091193;28;20230;-72
2023/07/15 11:19:29;;;;;;;3.43;3.00;;;32.80;45.90;;;;;;5074715;28;20302;-72
2023/07/15 11:21:57;;;;;;;3.90;2.70;;;32.90;46.00;;;;;;5073535;28;20234;-72
2023/07/15 11:24:25;;;;;;;3.17;2.83;;;32.90;45.70;;;;;;5074144;28;20581;-72
2023/07/15 11:26:52;;;;;;;6.13;3.53;;;32.90;45.80;;;;;;5084092;28;20194;-72
2023/07/15 11:29:21;;;;;;;3.57;3.00;;;32.90;45.70;;;;;;5081714;28;20244;-72
2023/07/15 11:31:51;;;;;;;2.87;2.57;;;33.00;45.80;;;;;;5079799;28;20203;-72
2023/07/15 11:34:18;;;;;;;3.20;2.80;;;33.10;45.80;;;;;;5093238;28;20237;-72
2023/07/15 11:36:46;;;;;;;6.20;3.03;;;33.20;46.00;;;;;;5080477;28;20206;-72
2023/07/15 11:39:15;;;;;;;5.03;3.13;;;33.30;45.80;;;;;;5086603;28;20199;-72
2023/07/15 11:41:43;;;;;;;4.87;3.30;;;33.50;45.60;;;;;;5085251;28;20248;-72
2023/07/15 11:44:11;;;;;;;5.33;3.07;;;33.60;45.90;;;;;;5073578;28;20204;-72
2023/07/15 11:46:38;;;;;;;3.43;2.97;;;33.60;45.40;;;;;;5077685;28;20652;-72
2023/07/15 11:49:07;;;;;;;4.13;3.13;;;33.60;44.90;;;;;;5073128;28;20261;-71
2023/07/15 11:51:36;;;;;;;3.17;2.80;;;33.60;45.30;;;;;;5077975;28;20590;-72
2023/07/15 11:54:07;;;;;;;4.27;3.40;;;33.80;45.50;;;;;;5079815;28;20199;-72
2023/07/15 11:56:36;;;;;;;6.37;3.30;;;34.00;47.00;;;;;;5084009;28;20265;-72
2023/07/15 11:59:03;;;;;;;3.20;2.90;;;34.10;45.30;;;;;;5092525;28;20226;-71
2023/07/15 12:01:30;;;;;;;4.43;2.80;;;34.10;44.60;;;;;;5093105;28;20267;-73
2023/07/15 12:03:57;;;;;;;3.97;3.23;;;34.10;44.30;;;;;;5092309;28;20617;-73
2023/07/15 12:06:27;;;;;;;3.87;2.80;;;34.10;44.90;;;;;;5092624;28;20695;-72
2023/07/15 12:09:02;;;;;;;4.67;3.53;;;34.10;44.80;;;;;;5080435;28;20240;-72
2023/07/15 12:11:29;;;;;;;3.67;3.10;;;34.10;45.60;;;;;;5075166;28;20255;-72
2023/07/15 12:13:56;;;;;;;6.70;2.90;;;34.10;44.60;;;;;;5083932;28;20213;-72
2023/07/15 12:16:23;;;;;;;6.67;3.03;;;34.00;44.40;;;;;;5072042;28;20300;-72
2023/07/15 12:18:50;;;;;;;5.13;3.20;;;34.00;45.30;;;;;;5091583;28;20204;-72
2023/07/15 12:21:17;;;;;;;3.73;3.23;;;34.00;45.20;;;;;;5073947;28;20206;-72
2023/07/15 12:23:45;;;;;;;5.07;3.23;;;33.90;44.60;;;;;;5088521;28;20234;-72
2023/07/15 12:26:12;;;;;;;4.47;3.10;;;33.60;45.10;;;;;;5092070;28;20227;-72
2023/07/15 12:28:39;;;;;;;4.23;2.97;;;33.60;45.70;;;;;;5091056;28;20200;-72
2023/07/15 12:31:06;;;;;;;5.13;3.27;;;33.60;45.90;;;;;;5079675;28;20228;-72
2023/07/15 12:33:33;;;;;;;4.47;3.57;;;33.60;46.00;;;;;;5086162;28;20203;-72
2023/07/15 12:36:00;;;;;;;4.27;3.57;;;33.60;46.20;;;;;;5091831;28;20216;-72
2023/07/15 12:38:26;;;;;;;4.10;3.13;;;33.70;46.70;;;;;;5090588;28;20632;-72
2023/07/15 12:40:55;;;;;;;5.50;2.93;;;33.80;46.80;;;;;;5087414;28;20216;-73
2023/07/15 12:43:23;;;;;;;3.27;2.90;;;33.90;46.30;;;;;;5084605;28;20670;-72
2023/07/15 12:45:50;;;;;;;3.77;2.77;;;34.00;47.10;;;;;;5090675;28;20220;-72
2023/07/15 12:48:17;;;;;;;3.43;2.90;;;34.10;47.10;;;;;;5078305;28;20311;-73
2023/07/15 12:50:44;;;;;;;3.97;3.37;;;34.30;46.90;;;;;;5072944;28;20201;-71
2023/07/15 12:53:11;;;;;;;3.97;3.13;;;34.50;47.40;;;;;;5083683;28;20227;-70